sensor_id;sensor_type;location;lat;lon;timestamp;P1;durP1;ratioP1;P2;durP2;ratioP2
12867;SDS011;33517;49.866;8.320;2022-08-01T00:00:47;9.07;;;6.43;;
12867;SDS011;33517;49.866;8.320;2022-08-01T00:03:39;9.48;;;5.55;;
12867;SDS011;33517;49.866;8.320;2022-08-01T00:06:31;1.27;;;1.00;;
12867;SDS011;33517;49.866;8.320;2022-08-01T00:09:23;1.02;;;0.93;;
12867;SDS011;33517;49.866;8.320;2022-08-01T00:12:15;1.15;;;1.02;;
12867;SDS011;33517;49.866;8.320;2022-08-01T00:15:09;3.92;;;0.70;;
12867;SDS011;33517;49.866;8.320;2022-08-01T00:18:03;0.60;;;0.60;;
12867;SDS011;33517;49.866;8.320;2022-08-01T00:20:55;0.88;;;0.80;;
12867;SDS011;33517;49.866;8.320;2022-08-01T00:23:47;0.50;;;0.50;;
12867;SDS011;33517;49.866;8.320;2022-08-01T00:26:39;0.63;;;0.63;;
12867;SDS011;33517;49.866;8.320;2022-08-01T00:29:31;1.95;;;1.10;;
12867;SDS011;33517;49.866;8.320;2022-08-01T00:32:24;0.85;;;0.77;;
12867;SDS011;33517;49.866;8.320;2022-08-01T00:35:16;0.55;;;0.55;;
12867;SDS011;33517;49.866;8.320;2022-08-01T00:38:07;3.17;;;0.70;;
12867;SDS011;33517;49.866;8.320;2022-08-01T00:40:59;1.05;;;0.95;;
12867;SDS011;33517;49.866;8.320;2022-08-01T00:43:51;2.08;;;0.70;;
12867;SDS011;33517;49.866;8.320;2022-08-01T00:46:43;0.50;;;0.50;;
12867;SDS011;33517;49.866;8.320;2022-08-01T00:49:36;0.47;;;0.47;;
12867;SDS011;33517;49.866;8.320;2022-08-01T00:52:28;0.40;;;0.40;;
12867;SDS011;33517;49.866;8.320;2022-08-01T00:55:20;0.47;;;0.47;;
12867;SDS011;33517;49.866;8.320;2022-08-01T00:58:12;0.22;;;0.22;;
12867;SDS011;33517;49.866;8.320;2022-08-01T01:01:04;0.20;;;0.20;;
12867;SDS011;33517;49.866;8.320;2022-08-01T01:03:56;0.40;;;0.40;;
12867;SDS011;33517;49.866;8.320;2022-08-01T01:06:51;0.55;;;0.50;;
12867;SDS011;33517;49.866;8.320;2022-08-01T01:09:50;0.50;;;0.47;;
12867;SDS011;33517;49.866;8.320;2022-08-01T01:12:50;1.17;;;0.75;;
12867;SDS011;33517;49.866;8.320;2022-08-01T01:15:47;0.30;;;0.30;;
12867;SDS011;33517;49.866;8.320;2022-08-01T01:18:43;0.22;;;0.22;;
12867;SDS011;33517;49.866;8.320;2022-08-01T01:21:51;0.50;;;0.50;;
12867;SDS011;33517;49.866;8.320;2022-08-01T01:25:04;0.65;;;0.40;;
12867;SDS011;33517;49.866;8.320;2022-08-01T01:28:03;0.20;;;0.20;;
12867;SDS011;33517;49.866;8.320;2022-08-01T01:31:02;0.28;;;0.28;;
12867;SDS011;33517;49.866;8.320;2022-08-01T01:33:58;1.35;;;0.70;;
12867;SDS011;33517;49.866;8.320;2022-08-01T01:36:54;0.55;;;0.55;;
12867;SDS011;33517;49.866;8.320;2022-08-01T01:39:49;0.57;;;0.50;;
12867;SDS011;33517;49.866;8.320;2022-08-01T01:42:43;0.50;;;0.50;;
12867;SDS011;33517;49.866;8.320;2022-08-01T01:45:35;1.73;;;1.60;;
12867;SDS011;33517;49.866;8.320;2022-08-01T01:48:30;0.20;;;0.20;;
12867;SDS011;33517;49.866;8.320;2022-08-01T01:51:24;0.30;;;0.30;;
12867;SDS011;33517;49.866;8.320;2022-08-01T01:54:18;1.15;;;0.55;;
12867;SDS011;33517;49.866;8.320;2022-08-01T01:57:11;2.00;;;0.57;;
12867;SDS011;33517;49.866;8.320;2022-08-01T02:00:05;0.45;;;0.45;;
12867;SDS011;33517;49.866;8.320;2022-08-01T02:02:58;0.40;;;0.40;;
12867;SDS011;33517;49.866;8.320;2022-08-01T02:05:55;8.68;;;0.77;;
12867;SDS011;33517;49.866;8.320;2022-08-01T02:08:48;0.40;;;0.30;;
12867;SDS011;33517;49.866;8.320;2022-08-01T02:11:41;2.15;;;1.17;;
12867;SDS011;33517;49.866;8.320;2022-08-01T02:14:35;3.60;;;2.15;;
12867;SDS011;33517;49.866;8.320;2022-08-01T02:17:30;5.85;;;3.80;;
12867;SDS011;33517;49.866;8.320;2022-08-01T02:20:23;3.00;;;1.73;;
12867;SDS011;33517;49.866;8.320;2022-08-01T02:23:17;0.73;;;0.70;;
12867;SDS011;33517;49.866;8.320;2022-08-01T02:26:10;2.35;;;1.63;;
12867;SDS011;33517;49.866;8.320;2022-08-01T02:29:06;1.95;;;1.55;;
12867;SDS011;33517;49.866;8.320;2022-08-01T02:32:02;5.57;;;3.85;;
12867;SDS011;33517;49.866;8.320;2022-08-01T02:34:56;0.40;;;0.40;;
12867;SDS011;33517;49.866;8.320;2022-08-01T02:37:48;1.15;;;0.88;;
12867;SDS011;33517;49.866;8.320;2022-08-01T02:40:43;1.38;;;1.25;;
12867;SDS011;33517;49.866;8.320;2022-08-01T02:43:38;0.80;;;0.80;;
12867;SDS011;33517;49.866;8.320;2022-08-01T02:46:36;1.67;;;1.05;;
12867;SDS011;33517;49.866;8.320;2022-08-01T02:49:30;0.60;;;0.60;;
12867;SDS011;33517;49.866;8.320;2022-08-01T02:52:24;0.70;;;0.70;;
12867;SDS011;33517;49.866;8.320;2022-08-01T02:55:18;0.80;;;0.75;;
12867;SDS011;33517;49.866;8.320;2022-08-01T02:58:14;0.50;;;0.50;;
12867;SDS011;33517;49.866;8.320;2022-08-01T03:01:07;2.22;;;1.08;;
12867;SDS011;33517;49.866;8.320;2022-08-01T03:04:01;0.28;;;0.28;;
12867;SDS011;33517;49.866;8.320;2022-08-01T03:06:55;0.68;;;0.68;;
12867;SDS011;33517;49.866;8.320;2022-08-01T03:09:48;0.85;;;0.63;;
12867;SDS011;33517;49.866;8.320;2022-08-01T03:12:40;0.60;;;0.60;;
12867;SDS011;33517;49.866;8.320;2022-08-01T03:15:37;0.17;;;0.17;;
12867;SDS011;33517;49.866;8.320;2022-08-01T03:18:31;0.80;;;0.80;;
12867;SDS011;33517;49.866;8.320;2022-08-01T03:21:24;0.60;;;0.60;;
12867;SDS011;33517;49.866;8.320;2022-08-01T03:24:17;0.82;;;0.70;;
12867;SDS011;33517;49.866;8.320;2022-08-01T03:27:10;0.50;;;0.50;;
12867;SDS011;33517;49.866;8.320;2022-08-01T03:30:06;0.30;;;0.30;;
12867;SDS011;33517;49.866;8.320;2022-08-01T03:33:00;0.60;;;0.47;;
12867;SDS011;33517;49.866;8.320;2022-08-01T03:35:52;1.30;;;0.88;;
12867;SDS011;33517;49.866;8.320;2022-08-01T03:38:47;1.23;;;1.13;;
12867;SDS011;33517;49.866;8.320;2022-08-01T03:41:43;0.20;;;0.20;;
12867;SDS011;33517;49.866;8.320;2022-08-01T03:44:40;1.27;;;0.95;;
12867;SDS011;33517;49.866;8.320;2022-08-01T03:47:33;1.08;;;0.88;;
12867;SDS011;33517;49.866;8.320;2022-08-01T03:50:27;0.57;;;0.57;;
12867;SDS011;33517;49.866;8.320;2022-08-01T03:53:24;1.45;;;0.90;;
12867;SDS011;33517;49.866;8.320;2022-08-01T03:56:20;0.68;;;0.68;;
12867;SDS011;33517;49.866;8.320;2022-08-01T03:59:13;0.80;;;0.75;;
12867;SDS011;33517;49.866;8.320;2022-08-01T04:02:07;0.82;;;0.82;;
12867;SDS011;33517;49.866;8.320;2022-08-01T04:04:59;1.15;;;0.80;;
12867;SDS011;33517;49.866;8.320;2022-08-01T04:07:53;0.77;;;0.75;;
12867;SDS011;33517;49.866;8.320;2022-08-01T04:10:46;0.28;;;0.28;;
12867;SDS011;33517;49.866;8.320;2022-08-01T04:13:38;0.20;;;0.20;;
12867;SDS011;33517;49.866;8.320;2022-08-01T04:16:30;0.50;;;0.50;;
12867;SDS011;33517;49.866;8.320;2022-08-01T04:19:22;0.55;;;0.55;;
12867;SDS011;33517;49.866;8.320;2022-08-01T04:22:14;0.80;;;0.80;;
12867;SDS011;33517;49.866;8.320;2022-08-01T04:25:09;0.20;;;0.20;;
12867;SDS011;33517;49.866;8.320;2022-08-01T04:28:06;0.45;;;0.45;;
12867;SDS011;33517;49.866;8.320;2022-08-01T04:31:01;0.45;;;0.45;;
12867;SDS011;33517;49.866;8.320;2022-08-01T04:33:55;0.30;;;0.30;;
12867;SDS011;33517;49.866;8.320;2022-08-01T04:36:50;0.43;;;0.32;;
12867;SDS011;33517;49.866;8.320;2022-08-01T04:39:44;0.70;;;0.70;;
12867;SDS011;33517;49.866;8.320;2022-08-01T04:42:39;0.55;;;0.55;;
12867;SDS011;33517;49.866;8.320;2022-08-01T04:45:31;0.80;;;0.70;;
12867;SDS011;33517;49.866;8.320;2022-08-01T04:48:24;3.95;;;0.45;;
12867;SDS011;33517;49.866;8.320;2022-08-01T04:51:17;0.50;;;0.50;;
12867;SDS011;33517;49.866;8.320;2022-08-01T04:54:12;0.70;;;0.70;;
12867;SDS011;33517;49.866;8.320;2022-08-01T04:57:04;0.45;;;0.45;;
12867;SDS011;33517;49.866;8.320;2022-08-01T04:59:57;0.25;;;0.25;;
12867;SDS011;33517;49.866;8.320;2022-08-01T05:02:49;0.40;;;0.40;;
12867;SDS011;33517;49.866;8.320;2022-08-01T05:05:41;0.30;;;0.30;;
12867;SDS011;33517;49.866;8.320;2022-08-01T05:08:33;0.20;;;0.20;;
12867;SDS011;33517;49.866;8.320;2022-08-01T05:11:26;0.40;;;0.40;;
12867;SDS011;33517;49.866;8.320;2022-08-01T05:14:18;0.65;;;0.65;;
12867;SDS011;33517;49.866;8.320;2022-08-01T05:17:11;0.28;;;0.28;;
12867;SDS011;33517;49.866;8.320;2022-08-01T05:20:04;0.70;;;0.70;;
12867;SDS011;33517;49.866;8.320;2022-08-01T05:22:56;0.98;;;0.90;;
12867;SDS011;33517;49.866;8.320;2022-08-01T05:25:48;0.50;;;0.50;;
12867;SDS011;33517;49.866;8.320;2022-08-01T05:28:40;0.63;;;0.63;;
12867;SDS011;33517;49.866;8.320;2022-08-01T05:31:32;0.95;;;0.60;;
12867;SDS011;33517;49.866;8.320;2022-08-01T05:34:26;0.63;;;0.63;;
12867;SDS011;33517;49.866;8.320;2022-08-01T05:37:19;1.95;;;0.52;;
12867;SDS011;33517;49.866;8.320;2022-08-01T05:40:11;0.38;;;0.38;;
12867;SDS011;33517;49.866;8.320;2022-08-01T05:43:03;0.40;;;0.40;;
12867;SDS011;33517;49.866;8.320;2022-08-01T05:45:55;0.50;;;0.50;;
12867;SDS011;33517;49.866;8.320;2022-08-01T05:48:48;0.98;;;0.88;;
12867;SDS011;33517;49.866;8.320;2022-08-01T05:51:41;0.38;;;0.38;;
12867;SDS011;33517;49.866;8.320;2022-08-01T05:54:34;0.75;;;0.60;;
12867;SDS011;33517;49.866;8.320;2022-08-01T05:57:25;2.53;;;0.70;;
12867;SDS011;33517;49.866;8.320;2022-08-01T06:00:18;0.55;;;0.55;;
12867;SDS011;33517;49.866;8.320;2022-08-01T06:03:10;0.70;;;0.70;;
12867;SDS011;33517;49.866;8.320;2022-08-01T06:06:02;0.73;;;0.70;;
12867;SDS011;33517;49.866;8.320;2022-08-01T06:08:56;2.42;;;1.40;;
12867;SDS011;33517;49.866;8.320;2022-08-01T06:11:48;0.68;;;0.68;;
12867;SDS011;33517;49.866;8.320;2022-08-01T06:14:39;0.55;;;0.55;;
12867;SDS011;33517;49.866;8.320;2022-08-01T06:17:31;0.40;;;0.40;;
12867;SDS011;33517;49.866;8.320;2022-08-01T06:20:23;1.27;;;1.17;;
12867;SDS011;33517;49.866;8.320;2022-08-01T06:23:15;0.60;;;0.60;;
12867;SDS011;33517;49.866;8.320;2022-08-01T06:26:09;1.15;;;0.80;;
12867;SDS011;33517;49.866;8.320;2022-08-01T06:29:01;0.70;;;0.70;;
12867;SDS011;33517;49.866;8.320;2022-08-01T06:31:53;0.52;;;0.52;;
12867;SDS011;33517;49.866;8.320;2022-08-01T06:34:45;0.60;;;0.60;;
12867;SDS011;33517;49.866;8.320;2022-08-01T06:37:37;0.50;;;0.50;;
12867;SDS011;33517;49.866;8.320;2022-08-01T06:40:28;0.63;;;0.60;;
12867;SDS011;33517;49.866;8.320;2022-08-01T06:43:22;0.57;;;0.57;;
12867;SDS011;33517;49.866;8.320;2022-08-01T06:46:14;0.60;;;0.60;;
12867;SDS011;33517;49.866;8.320;2022-08-01T06:49:05;1.20;;;0.80;;
12867;SDS011;33517;49.866;8.320;2022-08-01T06:51:57;1.75;;;1.40;;
12867;SDS011;33517;49.866;8.320;2022-08-01T06:54:49;0.98;;;0.98;;
12867;SDS011;33517;49.866;8.320;2022-08-01T06:57:45;0.63;;;0.63;;
12867;SDS011;33517;49.866;8.320;2022-08-01T07:00:39;1.55;;;0.70;;
12867;SDS011;33517;49.866;8.320;2022-08-01T07:03:32;0.40;;;0.40;;
12867;SDS011;33517;49.866;8.320;2022-08-01T07:06:25;0.88;;;0.88;;
12867;SDS011;33517;49.866;8.320;2022-08-01T07:09:17;1.00;;;0.85;;
12867;SDS011;33517;49.866;8.320;2022-08-01T07:12:09;0.75;;;0.75;;
12867;SDS011;33517;49.866;8.320;2022-08-01T07:15:02;0.75;;;0.75;;
12867;SDS011;33517;49.866;8.320;2022-08-01T07:17:55;1.13;;;1.02;;
12867;SDS011;33517;49.866;8.320;2022-08-01T07:20:49;0.75;;;0.73;;
12867;SDS011;33517;49.866;8.320;2022-08-01T07:23:41;1.10;;;1.05;;
12867;SDS011;33517;49.866;8.320;2022-08-01T07:26:33;2.03;;;0.98;;
12867;SDS011;33517;49.866;8.320;2022-08-01T07:29:25;2.25;;;1.35;;
12867;SDS011;33517;49.866;8.320;2022-08-01T07:32:17;0.65;;;0.65;;
12867;SDS011;33517;49.866;8.320;2022-08-01T07:35:10;1.10;;;0.90;;
12867;SDS011;33517;49.866;8.320;2022-08-01T07:38:02;0.82;;;0.82;;
12867;SDS011;33517;49.866;8.320;2022-08-01T07:40:54;3.10;;;1.20;;
12867;SDS011;33517;49.866;8.320;2022-08-01T07:43:46;1.15;;;1.15;;
12867;SDS011;33517;49.866;8.320;2022-08-01T07:46:39;1.83;;;1.10;;
12867;SDS011;33517;49.866;8.320;2022-08-01T07:49:31;1.35;;;1.25;;
12867;SDS011;33517;49.866;8.320;2022-08-01T07:52:24;2.40;;;1.25;;
12867;SDS011;33517;49.866;8.320;2022-08-01T07:55:17;0.80;;;0.80;;
12867;SDS011;33517;49.866;8.320;2022-08-01T07:58:09;1.20;;;1.10;;
12867;SDS011;33517;49.866;8.320;2022-08-01T08:01:01;4.55;;;1.42;;
12867;SDS011;33517;49.866;8.320;2022-08-01T08:03:53;2.72;;;2.03;;
12867;SDS011;33517;49.866;8.320;2022-08-01T08:06:45;1.58;;;1.23;;
12867;SDS011;33517;49.866;8.320;2022-08-01T08:09:39;0.80;;;0.80;;
12867;SDS011;33517;49.866;8.320;2022-08-01T08:12:31;1.00;;;0.98;;
12867;SDS011;33517;49.866;8.320;2022-08-01T08:15:23;1.17;;;1.08;;
12867;SDS011;33517;49.866;8.320;2022-08-01T08:18:15;0.98;;;0.98;;
12867;SDS011;33517;49.866;8.320;2022-08-01T08:21:06;1.52;;;1.20;;
12867;SDS011;33517;49.866;8.320;2022-08-01T08:23:58;0.80;;;0.80;;
12867;SDS011;33517;49.866;8.320;2022-08-01T08:27:09;1.15;;;1.10;;
12867;SDS011;33517;49.866;8.320;2022-08-01T08:30:02;1.70;;;1.10;;
12867;SDS011;33517;49.866;8.320;2022-08-01T08:32:56;3.78;;;3.08;;
12867;SDS011;33517;49.866;8.320;2022-08-01T08:35:48;2.13;;;1.70;;
12867;SDS011;33517;49.866;8.320;2022-08-01T08:38:39;1.67;;;1.55;;
12867;SDS011;33517;49.866;8.320;2022-08-01T08:41:32;2.97;;;1.00;;
12867;SDS011;33517;49.866;8.320;2022-08-01T08:44:26;2.15;;;0.80;;
12867;SDS011;33517;49.866;8.320;2022-08-01T08:47:17;1.50;;;1.40;;
12867;SDS011;33517;49.866;8.320;2022-08-01T08:50:10;0.63;;;0.63;;
12867;SDS011;33517;49.866;8.320;2022-08-01T08:53:02;1.10;;;1.02;;
12867;SDS011;33517;49.866;8.320;2022-08-01T08:55:55;3.00;;;2.45;;
12867;SDS011;33517;49.866;8.320;2022-08-01T08:58:48;2.63;;;1.85;;
12867;SDS011;33517;49.866;8.320;2022-08-01T09:01:43;2.72;;;2.38;;
12867;SDS011;33517;49.866;8.320;2022-08-01T09:04:35;1.00;;;0.95;;
12867;SDS011;33517;49.866;8.320;2022-08-01T09:07:27;0.77;;;0.77;;
12867;SDS011;33517;49.866;8.320;2022-08-01T09:10:19;3.95;;;0.90;;
12867;SDS011;33517;49.866;8.320;2022-08-01T09:13:12;1.63;;;1.35;;
12867;SDS011;33517;49.866;8.320;2022-08-01T09:16:05;1.30;;;0.80;;
12867;SDS011;33517;49.866;8.320;2022-08-01T09:19:07;1.00;;;1.00;;
12867;SDS011;33517;49.866;8.320;2022-08-01T09:22:07;1.58;;;1.45;;
12867;SDS011;33517;49.866;8.320;2022-08-01T09:25:02;1.33;;;1.17;;
12867;SDS011;33517;49.866;8.320;2022-08-01T09:28:01;3.33;;;1.50;;
12867;SDS011;33517;49.866;8.320;2022-08-01T09:30:56;0.70;;;0.70;;
12867;SDS011;33517;49.866;8.320;2022-08-01T09:33:49;1.83;;;0.90;;
12867;SDS011;33517;49.866;8.320;2022-08-01T09:36:45;4.82;;;3.05;;
12867;SDS011;33517;49.866;8.320;2022-08-01T09:39:42;2.78;;;1.30;;
12867;SDS011;33517;49.866;8.320;2022-08-01T09:42:36;4.03;;;2.78;;
12867;SDS011;33517;49.866;8.320;2022-08-01T09:45:31;1.05;;;0.90;;
12867;SDS011;33517;49.866;8.320;2022-08-01T09:48:23;1.15;;;0.73;;
12867;SDS011;33517;49.866;8.320;2022-08-01T09:51:17;0.80;;;0.80;;
12867;SDS011;33517;49.866;8.320;2022-08-01T09:54:28;0.77;;;0.77;;
12867;SDS011;33517;49.866;8.320;2022-08-01T09:57:21;2.53;;;1.65;;
12867;SDS011;33517;49.866;8.320;2022-08-01T10:00:17;0.60;;;0.60;;
12867;SDS011;33517;49.866;8.320;2022-08-01T10:03:19;1.33;;;1.23;;
12867;SDS011;33517;49.866;8.320;2022-08-01T10:06:18;2.00;;;0.98;;
12867;SDS011;33517;49.866;8.320;2022-08-01T10:09:12;0.70;;;0.70;;
12867;SDS011;33517;49.866;8.320;2022-08-01T10:12:06;0.80;;;0.80;;
12867;SDS011;33517;49.866;8.320;2022-08-01T10:14:59;0.57;;;0.57;;
12867;SDS011;33517;49.866;8.320;2022-08-01T10:17:53;0.57;;;0.57;;
12867;SDS011;33517;49.866;8.320;2022-08-01T10:20:45;1.45;;;0.93;;
12867;SDS011;33517;49.866;8.320;2022-08-01T10:23:37;0.93;;;0.80;;
12867;SDS011;33517;49.866;8.320;2022-08-01T10:26:31;1.20;;;1.10;;
12867;SDS011;33517;49.866;8.320;2022-08-01T10:29:26;0.80;;;0.80;;
12867;SDS011;33517;49.866;8.320;2022-08-01T10:32:18;0.75;;;0.75;;
12867;SDS011;33517;49.866;8.320;2022-08-01T10:35:10;0.80;;;0.80;;
12867;SDS011;33517;49.866;8.320;2022-08-01T10:38:07;3.30;;;0.73;;
12867;SDS011;33517;49.866;8.320;2022-08-01T10:40:59;1.13;;;0.80;;
12867;SDS011;33517;49.866;8.320;2022-08-01T10:43:54;0.77;;;0.77;;
12867;SDS011;33517;49.866;8.320;2022-08-01T10:46:48;1.15;;;0.75;;
12867;SDS011;33517;49.866;8.320;2022-08-01T10:49:45;0.82;;;0.82;;
12867;SDS011;33517;49.866;8.320;2022-08-01T10:52:40;0.73;;;0.73;;
12867;SDS011;33517;49.866;8.320;2022-08-01T10:55:44;0.70;;;0.70;;
12867;SDS011;33517;49.866;8.320;2022-08-01T10:58:41;0.93;;;0.73;;
12867;SDS011;33517;49.866;8.320;2022-08-01T11:01:34;0.60;;;0.60;;
12867;SDS011;33517;49.866;8.320;2022-08-01T11:04:33;0.55;;;0.55;;
12867;SDS011;33517;49.866;8.320;2022-08-01T11:07:43;0.40;;;0.40;;
12867;SDS011;33517;49.866;8.320;2022-08-01T11:10:39;0.80;;;0.80;;
12867;SDS011;33517;49.866;8.320;2022-08-01T11:17:11;0.60;;;0.60;;
12867;SDS011;33517;49.866;8.320;2022-08-01T11:20:23;0.85;;;0.85;;
12867;SDS011;33517;49.866;8.320;2022-08-01T11:23:18;0.90;;;0.90;;
12867;SDS011;33517;49.866;8.320;2022-08-01T11:29:17;0.80;;;0.80;;
12867;SDS011;33517;49.866;8.320;2022-08-01T11:35:19;5.88;;;0.75;;
12867;SDS011;33517;49.866;8.320;2022-08-01T11:38:24;0.60;;;0.60;;
12867;SDS011;33517;49.866;8.320;2022-08-01T11:41:21;0.70;;;0.70;;
12867;SDS011;33517;49.866;8.320;2022-08-01T11:44:15;0.63;;;0.63;;
12867;SDS011;33517;49.866;8.320;2022-08-01T11:47:13;0.57;;;0.57;;
12867;SDS011;33517;49.866;8.320;2022-08-01T11:50:05;1.73;;;0.70;;
12867;SDS011;33517;49.866;8.320;2022-08-01T11:52:57;1.98;;;0.55;;
12867;SDS011;33517;49.866;8.320;2022-08-01T11:55:52;0.98;;;0.70;;
12867;SDS011;33517;49.866;8.320;2022-08-01T11:58:45;0.80;;;0.80;;
12867;SDS011;33517;49.866;8.320;2022-08-01T12:01:37;0.40;;;0.40;;
12867;SDS011;33517;49.866;8.320;2022-08-01T12:04:43;1.13;;;0.80;;
12867;SDS011;33517;49.866;8.320;2022-08-01T12:07:36;0.65;;;0.65;;
12867;SDS011;33517;49.866;8.320;2022-08-01T12:10:29;0.77;;;0.77;;
12867;SDS011;33517;49.866;8.320;2022-08-01T12:13:28;0.60;;;0.60;;
12867;SDS011;33517;49.866;8.320;2022-08-01T12:16:31;0.90;;;0.70;;
12867;SDS011;33517;49.866;8.320;2022-08-01T12:19:24;0.73;;;0.73;;
12867;SDS011;33517;49.866;8.320;2022-08-01T12:22:16;0.75;;;0.75;;
12867;SDS011;33517;49.866;8.320;2022-08-01T12:25:08;0.75;;;0.75;;
12867;SDS011;33517;49.866;8.320;2022-08-01T12:28:02;1.83;;;0.55;;
12867;SDS011;33517;49.866;8.320;2022-08-01T12:30:56;1.25;;;0.73;;
12867;SDS011;33517;49.866;8.320;2022-08-01T12:33:48;0.73;;;0.70;;
12867;SDS011;33517;49.866;8.320;2022-08-01T12:36:40;2.38;;;0.80;;
12867;SDS011;33517;49.866;8.320;2022-08-01T12:39:33;0.60;;;0.60;;
12867;SDS011;33517;49.866;8.320;2022-08-01T12:42:25;0.70;;;0.70;;
12867;SDS011;33517;49.866;8.320;2022-08-01T12:45:19;0.60;;;0.60;;
12867;SDS011;33517;49.866;8.320;2022-08-01T12:48:15;0.40;;;0.40;;
12867;SDS011;33517;49.866;8.320;2022-08-01T12:51:07;0.63;;;0.63;;
12867;SDS011;33517;49.866;8.320;2022-08-01T12:54:02;0.90;;;0.90;;
12867;SDS011;33517;49.866;8.320;2022-08-01T12:56:54;0.47;;;0.47;;
12867;SDS011;33517;49.866;8.320;2022-08-01T12:59:47;0.55;;;0.55;;
12867;SDS011;33517;49.866;8.320;2022-08-01T13:02:40;0.50;;;0.50;;
12867;SDS011;33517;49.866;8.320;2022-08-01T13:05:44;0.52;;;0.52;;
12867;SDS011;33517;49.866;8.320;2022-08-01T13:08:38;0.50;;;0.50;;
12867;SDS011;33517;49.866;8.320;2022-08-01T13:11:30;0.60;;;0.60;;
12867;SDS011;33517;49.866;8.320;2022-08-01T13:14:28;0.63;;;0.63;;
12867;SDS011;33517;49.866;8.320;2022-08-01T13:17:30;0.80;;;0.80;;
12867;SDS011;33517;49.866;8.320;2022-08-01T13:20:26;3.67;;;1.00;;
12867;SDS011;33517;49.866;8.320;2022-08-01T13:23:21;1.15;;;0.60;;
12867;SDS011;33517;49.866;8.320;2022-08-01T13:26:13;0.85;;;0.85;;
12867;SDS011;33517;49.866;8.320;2022-08-01T13:29:05;0.80;;;0.80;;
12867;SDS011;33517;49.866;8.320;2022-08-01T13:31:58;0.90;;;0.65;;
12867;SDS011;33517;49.866;8.320;2022-08-01T13:34:50;0.75;;;0.75;;
12867;SDS011;33517;49.866;8.320;2022-08-01T13:37:52;0.70;;;0.63;;
12867;SDS011;33517;49.866;8.320;2022-08-01T13:40:46;0.60;;;0.60;;
12867;SDS011;33517;49.866;8.320;2022-08-01T13:43:38;0.75;;;0.70;;
12867;SDS011;33517;49.866;8.320;2022-08-01T13:46:31;0.68;;;0.68;;
12867;SDS011;33517;49.866;8.320;2022-08-01T13:49:23;1.55;;;0.45;;
12867;SDS011;33517;49.866;8.320;2022-08-01T13:52:15;3.40;;;1.05;;
12867;SDS011;33517;49.866;8.320;2022-08-01T13:55:07;0.55;;;0.55;;
12867;SDS011;33517;49.866;8.320;2022-08-01T13:58:00;0.52;;;0.52;;
12867;SDS011;33517;49.866;8.320;2022-08-01T14:00:52;0.40;;;0.40;;
12867;SDS011;33517;49.866;8.320;2022-08-01T14:03:44;0.65;;;0.65;;
12867;SDS011;33517;49.866;8.320;2022-08-01T14:06:36;0.50;;;0.50;;
12867;SDS011;33517;49.866;8.320;2022-08-01T14:09:28;0.70;;;0.70;;
12867;SDS011;33517;49.866;8.320;2022-08-01T14:12:20;0.60;;;0.60;;
12867;SDS011;33517;49.866;8.320;2022-08-01T14:15:13;1.27;;;0.60;;
12867;SDS011;33517;49.866;8.320;2022-08-01T14:18:05;0.50;;;0.50;;
12867;SDS011;33517;49.866;8.320;2022-08-01T14:20:57;0.65;;;0.65;;
12867;SDS011;33517;49.866;8.320;2022-08-01T14:23:49;0.57;;;0.57;;
12867;SDS011;33517;49.866;8.320;2022-08-01T14:26:41;0.57;;;0.57;;
12867;SDS011;33517;49.866;8.320;2022-08-01T14:29:33;0.60;;;0.60;;
12867;SDS011;33517;49.866;8.320;2022-08-01T14:32:26;5.75;;;0.75;;
12867;SDS011;33517;49.866;8.320;2022-08-01T14:35:18;0.85;;;0.80;;
12867;SDS011;33517;49.866;8.320;2022-08-01T14:38:10;0.35;;;0.35;;
12867;SDS011;33517;49.866;8.320;2022-08-01T14:41:02;0.88;;;0.80;;
12867;SDS011;33517;49.866;8.320;2022-08-01T14:43:54;4.97;;;2.03;;
12867;SDS011;33517;49.866;8.320;2022-08-01T14:46:46;2.10;;;1.00;;
12867;SDS011;33517;49.866;8.320;2022-08-01T14:49:39;11.80;;;1.08;;
12867;SDS011;33517;49.866;8.320;2022-08-01T14:52:31;0.88;;;0.85;;
12867;SDS011;33517;49.866;8.320;2022-08-01T14:55:23;5.95;;;1.00;;
12867;SDS011;33517;49.866;8.320;2022-08-01T14:58:17;2.22;;;1.38;;
12867;SDS011;33517;49.866;8.320;2022-08-01T15:01:09;3.10;;;0.52;;
12867;SDS011;33517;49.866;8.320;2022-08-01T15:04:01;0.65;;;0.50;;
12867;SDS011;33517;49.866;8.320;2022-08-01T15:06:54;1.10;;;0.73;;
12867;SDS011;33517;49.866;8.320;2022-08-01T15:09:46;0.50;;;0.50;;
12867;SDS011;33517;49.866;8.320;2022-08-01T15:12:38;2.05;;;0.65;;
12867;SDS011;33517;49.866;8.320;2022-08-01T15:15:29;0.38;;;0.38;;
12867;SDS011;33517;49.866;8.320;2022-08-01T15:18:22;0.50;;;0.50;;
12867;SDS011;33517;49.866;8.320;2022-08-01T15:21:13;2.22;;;0.88;;
12867;SDS011;33517;49.866;8.320;2022-08-01T15:24:07;1.63;;;0.88;;
12867;SDS011;33517;49.866;8.320;2022-08-01T15:27:00;1.20;;;0.68;;
12867;SDS011;33517;49.866;8.320;2022-08-01T15:29:52;0.73;;;0.70;;
12867;SDS011;33517;49.866;8.320;2022-08-01T15:32:44;0.68;;;0.68;;
12867;SDS011;33517;49.866;8.320;2022-08-01T15:35:36;1.08;;;0.68;;
12867;SDS011;33517;49.866;8.320;2022-08-01T15:38:28;0.85;;;0.70;;
12867;SDS011;33517;49.866;8.320;2022-08-01T15:41:21;0.60;;;0.60;;
12867;SDS011;33517;49.866;8.320;2022-08-01T15:44:13;0.73;;;0.73;;
12867;SDS011;33517;49.866;8.320;2022-08-01T15:47:08;0.80;;;0.80;;
12867;SDS011;33517;49.866;8.320;2022-08-01T15:50:00;0.90;;;0.75;;
12867;SDS011;33517;49.866;8.320;2022-08-01T15:52:53;0.98;;;0.98;;
12867;SDS011;33517;49.866;8.320;2022-08-01T15:55:45;1.33;;;1.10;;
12867;SDS011;33517;49.866;8.320;2022-08-01T15:58:38;1.58;;;1.13;;
12867;SDS011;33517;49.866;8.320;2022-08-01T16:01:30;0.85;;;0.85;;
12867;SDS011;33517;49.866;8.320;2022-08-01T16:04:22;1.27;;;1.17;;
12867;SDS011;33517;49.866;8.320;2022-08-01T16:07:14;3.35;;;1.23;;
12867;SDS011;33517;49.866;8.320;2022-08-01T16:10:07;0.85;;;0.85;;
12867;SDS011;33517;49.866;8.320;2022-08-01T16:12:59;1.00;;;0.98;;
12867;SDS011;33517;49.866;8.320;2022-08-01T16:15:53;1.55;;;1.45;;
12867;SDS011;33517;49.866;8.320;2022-08-01T16:18:45;1.08;;;0.93;;
12867;SDS011;33517;49.866;8.320;2022-08-01T16:21:37;1.55;;;1.30;;
12867;SDS011;33517;49.866;8.320;2022-08-01T16:24:30;1.92;;;1.55;;
12867;SDS011;33517;49.866;8.320;2022-08-01T16:27:22;6.35;;;1.98;;
12867;SDS011;33517;49.866;8.320;2022-08-01T16:30:14;2.30;;;1.80;;
12867;SDS011;33517;49.866;8.320;2022-08-01T16:33:08;1.38;;;1.27;;
12867;SDS011;33517;49.866;8.320;2022-08-01T16:36:00;2.13;;;1.92;;
12867;SDS011;33517;49.866;8.320;2022-08-01T16:38:52;1.55;;;1.45;;
12867;SDS011;33517;49.866;8.320;2022-08-01T16:41:44;5.00;;;3.35;;
12867;SDS011;33517;49.866;8.320;2022-08-01T16:44:35;3.65;;;2.00;;
12867;SDS011;33517;49.866;8.320;2022-08-01T16:47:29;6.70;;;3.72;;
12867;SDS011;33517;49.866;8.320;2022-08-01T16:50:22;6.18;;;4.63;;
12867;SDS011;33517;49.866;8.320;2022-08-01T16:53:15;5.75;;;4.07;;
12867;SDS011;33517;49.866;8.320;2022-08-01T16:56:07;5.80;;;2.92;;
12867;SDS011;33517;49.866;8.320;2022-08-01T16:58:59;6.85;;;4.35;;
12867;SDS011;33517;49.866;8.320;2022-08-01T17:01:51;9.27;;;5.38;;
12867;SDS011;33517;49.866;8.320;2022-08-01T17:04:43;14.05;;;8.20;;
12867;SDS011;33517;49.866;8.320;2022-08-01T17:07:36;3.45;;;2.58;;
12867;SDS011;33517;49.866;8.320;2022-08-01T17:10:29;5.82;;;3.50;;
12867;SDS011;33517;49.866;8.320;2022-08-01T17:13:21;6.38;;;4.60;;
12867;SDS011;33517;49.866;8.320;2022-08-01T17:16:13;1.65;;;1.48;;
12867;SDS011;33517;49.866;8.320;2022-08-01T17:19:05;1.50;;;1.40;;
12867;SDS011;33517;49.866;8.320;2022-08-01T17:21:57;5.82;;;4.50;;
12867;SDS011;33517;49.866;8.320;2022-08-01T17:24:50;2.78;;;1.95;;
12867;SDS011;33517;49.866;8.320;2022-08-01T17:27:42;2.40;;;2.20;;
12867;SDS011;33517;49.866;8.320;2022-08-01T17:30:35;5.00;;;2.45;;
12867;SDS011;33517;49.866;8.320;2022-08-01T17:33:27;2.30;;;1.55;;
12867;SDS011;33517;49.866;8.320;2022-08-01T17:36:19;3.97;;;3.13;;